sensor_id;sensor_type;location;lat;lon;timestamp;P1;durP1;ratioP1;P2;durP2;ratioP2
29162;SDS011;20331;53.144;8.208;2023-11-19T00:04:30;21.42;;;14.98;;
29162;SDS011;20331;53.144;8.208;2023-11-19T00:09:52;23.42;;;16.10;;
29162;SDS011;20331;53.144;8.208;2023-11-19T00:15:14;23.90;;;16.10;;
29162;SDS011;20331;53.144;8.208;2023-11-19T00:20:36;23.27;;;16.45;;
29162;SDS011;20331;53.144;8.208;2023-11-19T00:25:58;25.00;;;16.90;;
29162;SDS011;20331;53.144;8.208;2023-11-19T00:31:19;27.15;;;17.13;;
29162;SDS011;20331;53.144;8.208;2023-11-19T00:36:41;22.77;;;15.90;;
29162;SDS011;20331;53.144;8.208;2023-11-19T00:42:03;21.70;;;15.07;;
29162;SDS011;20331;53.144;8.208;2023-11-19T00:47:25;20.42;;;15.10;;
29162;SDS011;20331;53.144;8.208;2023-11-19T00:52:46;22.38;;;15.70;;
29162;SDS011;20331;53.144;8.208;2023-11-19T00:58:08;23.15;;;16.02;;
29162;SDS011;20331;53.144;8.208;2023-11-19T01:03:30;22.40;;;15.93;;
29162;SDS011;20331;53.144;8.208;2023-11-19T01:08:52;22.55;;;16.17;;
29162;SDS011;20331;53.144;8.208;2023-11-19T01:14:14;18.73;;;13.77;;
29162;SDS011;20331;53.144;8.208;2023-11-19T01:19:36;16.80;;;12.80;;
29162;SDS011;20331;53.144;8.208;2023-11-19T01:24:57;16.58;;;11.20;;
29162;SDS011;20331;53.144;8.208;2023-11-19T01:30:19;18.60;;;11.95;;
29162;SDS011;20331;53.144;8.208;2023-11-19T01:35:41;20.15;;;13.27;;
29162;SDS011;20331;53.144;8.208;2023-11-19T01:41:03;25.52;;;15.07;;
29162;SDS011;20331;53.144;8.208;2023-11-19T01:46:24;22.52;;;14.98;;
29162;SDS011;20331;53.144;8.208;2023-11-19T01:51:47;22.58;;;14.52;;
29162;SDS011;20331;53.144;8.208;2023-11-19T01:57:09;19.73;;;14.32;;
29162;SDS011;20331;53.144;8.208;2023-11-19T02:02:31;22.10;;;13.77;;
29162;SDS011;20331;53.144;8.208;2023-11-19T02:07:53;24.42;;;14.30;;
29162;SDS011;20331;53.144;8.208;2023-11-19T02:13:15;24.45;;;14.38;;
29162;SDS011;20331;53.144;8.208;2023-11-19T02:18:37;21.90;;;14.73;;
29162;SDS011;20331;53.144;8.208;2023-11-19T02:24:00;27.25;;;15.70;;
29162;SDS011;20331;53.144;8.208;2023-11-19T02:29:30;30.13;;;15.85;;
29162;SDS011;20331;53.144;8.208;2023-11-19T02:34:51;23.10;;;15.50;;
29162;SDS011;20331;53.144;8.208;2023-11-19T02:40:14;29.67;;;16.58;;
29162;SDS011;20331;53.144;8.208;2023-11-19T02:45:36;30.00;;;16.05;;
29162;SDS011;20331;53.144;8.208;2023-11-19T02:50:57;26.95;;;16.83;;
29162;SDS011;20331;53.144;8.208;2023-11-19T02:56:19;34.65;;;16.48;;
29162;SDS011;20331;53.144;8.208;2023-11-19T03:01:46;26.05;;;15.07;;
29162;SDS011;20331;53.144;8.208;2023-11-19T03:07:11;26.55;;;15.07;;
29162;SDS011;20331;53.144;8.208;2023-11-19T03:12:34;32.55;;;14.95;;
29162;SDS011;20331;53.144;8.208;2023-11-19T03:17:56;25.80;;;14.27;;
29162;SDS011;20331;53.144;8.208;2023-11-19T03:23:18;28.58;;;14.35;;
29162;SDS011;20331;53.144;8.208;2023-11-19T03:28:40;35.05;;;13.68;;
29162;SDS011;20331;53.144;8.208;2023-11-19T03:34:02;25.75;;;13.73;;
29162;SDS011;20331;53.144;8.208;2023-11-19T03:39:24;32.53;;;12.73;;
29162;SDS011;20331;53.144;8.208;2023-11-19T03:44:46;28.73;;;12.15;;
29162;SDS011;20331;53.144;8.208;2023-11-19T03:50:08;34.97;;;12.27;;
29162;SDS011;20331;53.144;8.208;2023-11-19T03:55:30;32.97;;;11.68;;
29162;SDS011;20331;53.144;8.208;2023-11-19T04:00:52;41.33;;;11.68;;
29162;SDS011;20331;53.144;8.208;2023-11-19T04:06:14;37.78;;;10.20;;
29162;SDS011;20331;53.144;8.208;2023-11-19T04:11:35;38.95;;;10.02;;
29162;SDS011;20331;53.144;8.208;2023-11-19T04:16:57;37.35;;;9.93;;
29162;SDS011;20331;53.144;8.208;2023-11-19T04:22:19;46.33;;;9.70;;
29162;SDS011;20331;53.144;8.208;2023-11-19T04:27:41;35.50;;;8.18;;
29162;SDS011;20331;53.144;8.208;2023-11-19T04:33:02;38.03;;;7.72;;
29162;SDS011;20331;53.144;8.208;2023-11-19T04:38:24;29.33;;;7.68;;
29162;SDS011;20331;53.144;8.208;2023-11-19T04:43:48;30.00;;;7.22;;
29162;SDS011;20331;53.144;8.208;2023-11-19T04:49:10;39.30;;;7.45;;
29162;SDS011;20331;53.144;8.208;2023-11-19T04:54:43;39.13;;;7.10;;
29162;SDS011;20331;53.144;8.208;2023-11-19T05:00:05;31.55;;;6.85;;
29162;SDS011;20331;53.144;8.208;2023-11-19T05:05:31;28.23;;;5.88;;
29162;SDS011;20331;53.144;8.208;2023-11-19T05:10:53;29.70;;;6.00;;
29162;SDS011;20331;53.144;8.208;2023-11-19T05:16:15;29.85;;;5.63;;
29162;SDS011;20331;53.144;8.208;2023-11-19T05:21:37;32.45;;;5.38;;
29162;SDS011;20331;53.144;8.208;2023-11-19T05:26:58;30.55;;;4.88;;
29162;SDS011;20331;53.144;8.208;2023-11-19T05:32:20;39.85;;;5.22;;
29162;SDS011;20331;53.144;8.208;2023-11-19T05:37:42;33.53;;;5.22;;
29162;SDS011;20331;53.144;8.208;2023-11-19T05:43:04;36.63;;;4.78;;
29162;SDS011;20331;53.144;8.208;2023-11-19T05:48:26;35.53;;;5.32;;
29162;SDS011;20331;53.144;8.208;2023-11-19T05:53:48;32.70;;;4.45;;
29162;SDS011;20331;53.144;8.208;2023-11-19T05:59:11;29.52;;;4.70;;
29162;SDS011;20331;53.144;8.208;2023-11-19T06:04:36;47.00;;;5.15;;
29162;SDS011;20331;53.144;8.208;2023-11-19T06:09:58;40.20;;;5.15;;
29162;SDS011;20331;53.144;8.208;2023-11-19T06:15:20;38.38;;;5.25;;
29162;SDS011;20331;53.144;8.208;2023-11-19T06:20:41;39.60;;;5.20;;
29162;SDS011;20331;53.144;8.208;2023-11-19T06:26:04;40.60;;;4.97;;
29162;SDS011;20331;53.144;8.208;2023-11-19T06:31:26;40.45;;;5.68;;
29162;SDS011;20331;53.144;8.208;2023-11-19T06:36:48;31.90;;;4.78;;
29162;SDS011;20331;53.144;8.208;2023-11-19T06:42:10;43.33;;;6.13;;
29162;SDS011;20331;53.144;8.208;2023-11-19T06:47:31;36.95;;;5.70;;
29162;SDS011;20331;53.144;8.208;2023-11-19T06:52:53;47.95;;;6.43;;
29162;SDS011;20331;53.144;8.208;2023-11-19T06:58:15;44.10;;;6.03;;
29162;SDS011;20331;53.144;8.208;2023-11-19T07:03:36;44.97;;;6.30;;
29162;SDS011;20331;53.144;8.208;2023-11-19T07:08:58;50.03;;;6.20;;
29162;SDS011;20331;53.144;8.208;2023-11-19T07:14:20;49.80;;;5.78;;
29162;SDS011;20331;53.144;8.208;2023-11-19T07:19:41;39.58;;;6.05;;
29162;SDS011;20331;53.144;8.208;2023-11-19T07:25:03;48.03;;;5.95;;
29162;SDS011;20331;53.144;8.208;2023-11-19T07:30:25;47.25;;;5.60;;
29162;SDS011;20331;53.144;8.208;2023-11-19T07:35:46;43.33;;;6.05;;
29162;SDS011;20331;53.144;8.208;2023-11-19T07:41:09;42.38;;;5.95;;
29162;SDS011;20331;53.144;8.208;2023-11-19T07:46:35;43.67;;;6.55;;
29162;SDS011;20331;53.144;8.208;2023-11-19T07:51:56;43.33;;;5.35;;
29162;SDS011;20331;53.144;8.208;2023-11-19T07:57:18;39.50;;;6.13;;
29162;SDS011;20331;53.144;8.208;2023-11-19T08:02:40;39.25;;;5.68;;
29162;SDS011;20331;53.144;8.208;2023-11-19T08:08:01;38.30;;;5.63;;
29162;SDS011;20331;53.144;8.208;2023-11-19T08:13:23;40.00;;;6.05;;
29162;SDS011;20331;53.144;8.208;2023-11-19T08:18:46;43.22;;;5.75;;
29162;SDS011;20331;53.144;8.208;2023-11-19T08:24:08;47.58;;;5.95;;
29162;SDS011;20331;53.144;8.208;2023-11-19T08:29:29;47.55;;;6.50;;
29162;SDS011;20331;53.144;8.208;2023-11-19T08:34:51;37.42;;;5.32;;
29162;SDS011;20331;53.144;8.208;2023-11-19T08:40:13;41.28;;;5.30;;
29162;SDS011;20331;53.144;8.208;2023-11-19T08:45:38;40.53;;;5.28;;
29162;SDS011;20331;53.144;8.208;2023-11-19T08:51:00;45.70;;;5.85;;
29162;SDS011;20331;53.144;8.208;2023-11-19T08:56:21;46.78;;;5.55;;
29162;SDS011;20331;53.144;8.208;2023-11-19T09:01:43;40.25;;;6.00;;
29162;SDS011;20331;53.144;8.208;2023-11-19T09:07:05;39.95;;;5.13;;
29162;SDS011;20331;53.144;8.208;2023-11-19T09:12:26;31.48;;;5.18;;
29162;SDS011;20331;53.144;8.208;2023-11-19T09:17:48;43.67;;;6.40;;
29162;SDS011;20331;53.144;8.208;2023-11-19T09:23:10;31.88;;;5.55;;
29162;SDS011;20331;53.144;8.208;2023-11-19T09:28:33;43.55;;;6.40;;
29162;SDS011;20331;53.144;8.208;2023-11-19T09:33:55;48.28;;;6.80;;
29162;SDS011;20331;53.144;8.208;2023-11-19T09:39:16;39.63;;;5.70;;
29162;SDS011;20331;53.144;8.208;2023-11-19T09:44:39;47.05;;;6.28;;
29162;SDS011;20331;53.144;8.208;2023-11-19T09:50:03;37.40;;;5.55;;
29162;SDS011;20331;53.144;8.208;2023-11-19T09:55:26;41.50;;;5.93;;
29162;SDS011;20331;53.144;8.208;2023-11-19T10:00:48;46.38;;;5.50;;
29162;SDS011;20331;53.144;8.208;2023-11-19T10:06:30;56.88;;;6.63;;
29162;SDS011;20331;53.144;8.208;2023-11-19T10:11:52;47.22;;;5.90;;
29162;SDS011;20331;53.144;8.208;2023-11-19T10:17:14;45.30;;;6.25;;
29162;SDS011;20331;53.144;8.208;2023-11-19T10:22:39;43.85;;;5.97;;
29162;SDS011;20331;53.144;8.208;2023-11-19T10:28:00;38.07;;;4.90;;
29162;SDS011;20331;53.144;8.208;2023-11-19T10:33:22;46.45;;;6.20;;
29162;SDS011;20331;53.144;8.208;2023-11-19T10:38:53;48.03;;;6.78;;
29162;SDS011;20331;53.144;8.208;2023-11-19T10:44:32;48.28;;;6.32;;
29162;SDS011;20331;53.144;8.208;2023-11-19T10:49:57;43.40;;;5.53;;
29162;SDS011;20331;53.144;8.208;2023-11-19T10:55:18;40.58;;;5.57;;
29162;SDS011;20331;53.144;8.208;2023-11-19T11:00:51;46.95;;;6.32;;
29162;SDS011;20331;53.144;8.208;2023-11-19T11:06:15;42.05;;;5.85;;
29162;SDS011;20331;53.144;8.208;2023-11-19T11:11:38;43.50;;;5.90;;
29162;SDS011;20331;53.144;8.208;2023-11-19T11:17:01;48.35;;;6.32;;
29162;SDS011;20331;53.144;8.208;2023-11-19T11:22:24;47.53;;;5.97;;
29162;SDS011;20331;53.144;8.208;2023-11-19T11:33:35;40.42;;;6.10;;
29162;SDS011;20331;53.144;8.208;2023-11-19T11:39:23;45.95;;;5.38;;
29162;SDS011;20331;53.144;8.208;2023-11-19T11:44:59;42.65;;;6.05;;
29162;SDS011;20331;53.144;8.208;2023-11-19T11:50:34;33.08;;;5.05;;
29162;SDS011;20331;53.144;8.208;2023-11-19T11:56:08;42.55;;;5.68;;
29162;SDS011;20331;53.144;8.208;2023-11-19T12:01:31;43.22;;;5.60;;
29162;SDS011;20331;53.144;8.208;2023-11-19T12:07:02;44.15;;;5.72;;
29162;SDS011;20331;53.144;8.208;2023-11-19T12:12:34;33.00;;;4.22;;
29162;SDS011;20331;53.144;8.208;2023-11-19T12:17:57;32.10;;;4.95;;
29162;SDS011;20331;53.144;8.208;2023-11-19T12:23:18;28.48;;;4.35;;
29162;SDS011;20331;53.144;8.208;2023-11-19T12:28:40;27.15;;;4.10;;
29162;SDS011;20331;53.144;8.208;2023-11-19T12:34:05;22.98;;;3.72;;
29162;SDS011;20331;53.144;8.208;2023-11-19T12:39:29;23.98;;;3.65;;
29162;SDS011;20331;53.144;8.208;2023-11-19T12:44:55;19.98;;;2.83;;
29162;SDS011;20331;53.144;8.208;2023-11-19T12:50:17;13.70;;;2.95;;
29162;SDS011;20331;53.144;8.208;2023-11-19T12:55:40;14.18;;;2.22;;
29162;SDS011;20331;53.144;8.208;2023-11-19T13:01:02;11.13;;;2.13;;
29162;SDS011;20331;53.144;8.208;2023-11-19T13:06:25;13.13;;;2.45;;
29162;SDS011;20331;53.144;8.208;2023-11-19T13:11:47;16.25;;;2.15;;
29162;SDS011;20331;53.144;8.208;2023-11-19T13:17:09;14.18;;;2.20;;
29162;SDS011;20331;53.144;8.208;2023-11-19T13:22:34;18.63;;;2.60;;
29162;SDS011;20331;53.144;8.208;2023-11-19T13:27:56;12.75;;;2.65;;
29162;SDS011;20331;53.144;8.208;2023-11-19T13:33:18;20.52;;;2.70;;
29162;SDS011;20331;53.144;8.208;2023-11-19T13:38:39;26.00;;;3.17;;
29162;SDS011;20331;53.144;8.208;2023-11-19T13:44:03;28.00;;;3.88;;
29162;SDS011;20331;53.144;8.208;2023-11-19T13:49:25;24.92;;;4.07;;
29162;SDS011;20331;53.144;8.208;2023-11-19T13:54:46;35.35;;;4.30;;
29162;SDS011;20331;53.144;8.208;2023-11-19T14:00:09;33.72;;;4.43;;
29162;SDS011;20331;53.144;8.208;2023-11-19T14:05:35;30.77;;;3.90;;
29162;SDS011;20331;53.144;8.208;2023-11-19T14:10:58;29.35;;;4.50;;
29162;SDS011;20331;53.144;8.208;2023-11-19T14:16:20;34.17;;;4.32;;
29162;SDS011;20331;53.144;8.208;2023-11-19T14:21:42;23.75;;;3.83;;
29162;SDS011;20331;53.144;8.208;2023-11-19T14:27:05;22.80;;;3.38;;
29162;SDS011;20331;53.144;8.208;2023-11-19T14:32:27;19.90;;;3.20;;
29162;SDS011;20331;53.144;8.208;2023-11-19T14:37:49;16.15;;;2.90;;
29162;SDS011;20331;53.144;8.208;2023-11-19T14:43:10;26.98;;;3.30;;
29162;SDS011;20331;53.144;8.208;2023-11-19T14:48:32;19.52;;;3.38;;
29162;SDS011;20331;53.144;8.208;2023-11-19T14:53:54;24.80;;;3.53;;
29162;SDS011;20331;53.144;8.208;2023-11-19T14:59:16;19.67;;;3.38;;
29162;SDS011;20331;53.144;8.208;2023-11-19T15:04:37;23.58;;;3.45;;
29162;SDS011;20331;53.144;8.208;2023-11-19T15:09:59;26.45;;;4.13;;
29162;SDS011;20331;53.144;8.208;2023-11-19T15:15:22;22.55;;;3.88;;
29162;SDS011;20331;53.144;8.208;2023-11-19T15:20:46;31.98;;;4.22;;
29162;SDS011;20331;53.144;8.208;2023-11-19T15:26:08;27.02;;;4.22;;
29162;SDS011;20331;53.144;8.208;2023-11-19T15:31:32;34.05;;;4.85;;
29162;SDS011;20331;53.144;8.208;2023-11-19T15:36:53;29.75;;;4.30;;
29162;SDS011;20331;53.144;8.208;2023-11-19T15:42:15;36.08;;;4.97;;
29162;SDS011;20331;53.144;8.208;2023-11-19T15:47:37;30.45;;;4.97;;
29162;SDS011;20331;53.144;8.208;2023-11-19T15:52:59;33.95;;;5.70;;
29162;SDS011;20331;53.144;8.208;2023-11-19T15:58:20;31.58;;;5.22;;
29162;SDS011;20331;53.144;8.208;2023-11-19T16:03:43;37.00;;;5.00;;
29162;SDS011;20331;53.144;8.208;2023-11-19T16:09:08;28.02;;;4.50;;
29162;SDS011;20331;53.144;8.208;2023-11-19T16:14:33;37.63;;;5.30;;
29162;SDS011;20331;53.144;8.208;2023-11-19T16:19:54;34.15;;;4.97;;
29162;SDS011;20331;53.144;8.208;2023-11-19T16:25:16;32.28;;;4.40;;
29162;SDS011;20331;53.144;8.208;2023-11-19T16:30:38;29.40;;;4.22;;
29162;SDS011;20331;53.144;8.208;2023-11-19T16:35:59;30.75;;;4.40;;
29162;SDS011;20331;53.144;8.208;2023-11-19T16:41:21;29.50;;;4.72;;
29162;SDS011;20331;53.144;8.208;2023-11-19T16:46:49;31.15;;;4.60;;
29162;SDS011;20331;53.144;8.208;2023-11-19T16:52:10;32.67;;;4.90;;
29162;SDS011;20331;53.144;8.208;2023-11-19T16:57:32;31.30;;;4.78;;
29162;SDS011;20331;53.144;8.208;2023-11-19T17:02:55;33.42;;;4.75;;
29162;SDS011;20331;53.144;8.208;2023-11-19T17:08:20;29.40;;;5.25;;
29162;SDS011;20331;53.144;8.208;2023-11-19T17:13:42;36.67;;;4.72;;
29162;SDS011;20331;53.144;8.208;2023-11-19T17:19:03;28.55;;;4.68;;
29162;SDS011;20331;53.144;8.208;2023-11-19T17:24:25;31.13;;;4.82;;
29162;SDS011;20331;53.144;8.208;2023-11-19T17:29:47;33.63;;;4.63;;
29162;SDS011;20331;53.144;8.208;2023-11-19T17:35:08;32.20;;;4.63;;
29162;SDS011;20331;53.144;8.208;2023-11-19T17:40:30;29.98;;;4.80;;
29162;SDS011;20331;53.144;8.208;2023-11-19T17:45:52;27.42;;;4.00;;
29162;SDS011;20331;53.144;8.208;2023-11-19T17:51:18;26.38;;;4.00;;
29162;SDS011;20331;53.144;8.208;2023-11-19T17:56:40;30.40;;;4.07;;
29162;SDS011;20331;53.144;8.208;2023-11-19T18:02:02;31.30;;;4.40;;
29162;SDS011;20331;53.144;8.208;2023-11-19T18:07:24;25.25;;;4.70;;
29162;SDS011;20331;53.144;8.208;2023-11-19T18:12:45;31.27;;;5.38;;
29162;SDS011;20331;53.144;8.208;2023-11-19T18:18:07;33.67;;;4.80;;
29162;SDS011;20331;53.144;8.208;2023-11-19T18:23:30;23.90;;;4.28;;
29162;SDS011;20331;53.144;8.208;2023-11-19T18:28:52;33.17;;;4.32;;
29162;SDS011;20331;53.144;8.208;2023-11-19T18:34:14;26.85;;;4.57;;
29162;SDS011;20331;53.144;8.208;2023-11-19T18:39:39;33.28;;;4.75;;
29162;SDS011;20331;53.144;8.208;2023-11-19T18:45:02;25.10;;;4.43;;
29162;SDS011;20331;53.144;8.208;2023-11-19T18:50:25;33.92;;;5.22;;
29162;SDS011;20331;53.144;8.208;2023-11-19T18:55:47;29.92;;;4.50;;
29162;SDS011;20331;53.144;8.208;2023-11-19T19:01:08;27.20;;;4.63;;
29162;SDS011;20331;53.144;8.208;2023-11-19T19:06:31;35.63;;;4.53;;
29162;SDS011;20331;53.144;8.208;2023-11-19T19:11:54;33.33;;;4.90;;
29162;SDS011;20331;53.144;8.208;2023-11-19T19:17:15;27.00;;;4.95;;
29162;SDS011;20331;53.144;8.208;2023-11-19T19:22:37;27.15;;;4.47;;
29162;SDS011;20331;53.144;8.208;2023-11-19T19:28:01;23.85;;;4.50;;
29162;SDS011;20331;53.144;8.208;2023-11-19T19:33:26;23.35;;;4.78;;
29162;SDS011;20331;53.144;8.208;2023-11-19T19:38:47;29.25;;;4.30;;
29162;SDS011;20331;53.144;8.208;2023-11-19T19:44:09;25.80;;;4.55;;
29162;SDS011;20331;53.144;8.208;2023-11-19T19:49:32;31.05;;;4.60;;
29162;SDS011;20331;53.144;8.208;2023-11-19T19:54:54;26.13;;;4.32;;
29162;SDS011;20331;53.144;8.208;2023-11-19T20:00:16;29.25;;;4.38;;
29162;SDS011;20331;53.144;8.208;2023-11-19T20:05:40;29.52;;;4.35;;
29162;SDS011;20331;53.144;8.208;2023-11-19T20:11:05;28.98;;;4.40;;
29162;SDS011;20331;53.144;8.208;2023-11-19T20:16:30;34.87;;;5.10;;
29162;SDS011;20331;53.144;8.208;2023-11-19T20:21:52;33.72;;;5.40;;
29162;SDS011;20331;53.144;8.208;2023-11-19T20:27:14;38.50;;;5.78;;
29162;SDS011;20331;53.144;8.208;2023-11-19T20:32:37;28.10;;;4.97;;
29162;SDS011;20331;53.144;8.208;2023-11-19T20:37:59;25.80;;;5.35;;
29162;SDS011;20331;53.144;8.208;2023-11-19T20:43:22;31.77;;;6.45;;
29162;SDS011;20331;53.144;8.208;2023-11-19T20:48:43;28.92;;;6.28;;
29162;SDS011;20331;53.144;8.208;2023-11-19T20:54:05;31.55;;;6.78;;
29162;SDS011;20331;53.144;8.208;2023-11-19T20:59:27;25.95;;;6.78;;
29162;SDS011;20331;53.144;8.208;2023-11-19T21:04:49;26.02;;;6.55;;
29162;SDS011;20331;53.144;8.208;2023-11-19T21:10:11;30.50;;;7.32;;
29162;SDS011;20331;53.144;8.208;2023-11-19T21:15:36;34.08;;;7.60;;
29162;SDS011;20331;53.144;8.208;2023-11-19T21:21:10;31.05;;;6.55;;
29162;SDS011;20331;53.144;8.208;2023-11-19T21:26:32;21.17;;;5.00;;
29162;SDS011;20331;53.144;8.208;2023-11-19T21:31:54;15.95;;;4.00;;
29162;SDS011;20331;53.144;8.208;2023-11-19T21:37:16;13.20;;;4.03;;
29162;SDS011;20331;53.144;8.208;2023-11-19T21:42:38;10.30;;;3.45;;
29162;SDS011;20331;53.144;8.208;2023-11-19T21:47:59;18.17;;;3.90;;
29162;SDS011;20331;53.144;8.208;2023-11-19T21:53:21;15.32;;;5.35;;
29162;SDS011;20331;53.144;8.208;2023-11-19T21:58:43;12.38;;;3.45;;
29162;SDS011;20331;53.144;8.208;2023-11-19T22:04:04;7.47;;;3.13;;
29162;SDS011;20331;53.144;8.208;2023-11-19T22:09:26;10.70;;;3.35;;
29162;SDS011;20331;53.144;8.208;2023-11-19T22:14:48;10.70;;;3.38;;
29162;SDS011;20331;53.144;8.208;2023-11-19T22:20:10;8.45;;;2.90;;
29162;SDS011;20331;53.144;8.208;2023-11-19T22:25:35;9.13;;;3.55;;
29162;SDS011;20331;53.144;8.208;2023-11-19T22:30:57;17.08;;;3.70;;
29162;SDS011;20331;53.144;8.208;2023-11-19T22:36:19;12.13;;;3.70;;
29162;SDS011;20331;53.144;8.208;2023-11-19T22:41:41;10.07;;;3.80;;
29162;SDS011;20331;53.144;8.208;2023-11-19T22:47:03;10.30;;;4.03;;
29162;SDS011;20331;53.144;8.208;2023-11-19T22:52:25;13.20;;;4.25;;
29162;SDS011;20331;53.144;8.208;2023-11-19T22:57:47;9.98;;;3.30;;
29162;SDS011;20331;53.144;8.208;2023-11-19T23:03:12;9.43;;;3.25;;
29162;SDS011;20331;53.144;8.208;2023-11-19T23:08:34;9.48;;;3.50;;
29162;SDS011;20331;53.144;8.208;2023-11-19T23:13:57;8.93;;;2.80;;
29162;SDS011;20331;53.144;8.208;2023-11-19T23:19:19;14.90;;;2.80;;
29162;SDS011;20331;53.144;8.208;2023-11-19T23:24:41;5.10;;;2.30;;
29162;SDS011;20331;53.144;8.208;2023-11-19T23:30:03;6.28;;;2.17;;
29162;SDS011;20331;53.144;8.208;2023-11-19T23:35:25;6.75;;;2.03;;
29162;SDS011;20331;53.144;8.208;2023-11-19T23:40:47;4.70;;;1.83;;
29162;SDS011;20331;53.144;8.208;2023-11-19T23:46:09;4.82;;;1.77;;
29162;SDS011;20331;53.144;8.208;2023-11-19T23:51:36;5.93;;;1.40;;
29162;SDS011;20331;53.144;8.208;2023-11-19T23:56:58;3.75;;;1.20;;
